Time;durP1;ratioP1;P1;durP2;ratioP2;P2;SDS_P1;SDS_P2;PMS_P1;PMS_P2;Temp;Humidity;BMP_temperature;BMP_pressure;BME280_temperature;BME280_humidity;BME280_pressure;Samples;Min_cycle;Max_cycle;Signal;HPM_P1;HPM_P2
2021/08/24 00:00:30;;;;;;;;;21.33;20.00;;;;;;;;5122945;27;45900;-76
2021/08/24 00:02:56;;;;;;;;;21.67;21.33;;;;;;;;5123861;27;45349;-77
2021/08/24 00:05:24;;;;;;;;;21.33;20.33;;;;;;;;5124381;27;45519;-76
2021/08/24 00:07:56;;;;;;;;;20.33;19.00;;;;;;;;5123270;27;45278;-77
2021/08/24 00:10:21;;;;;;;;;20.67;19.33;;;;;;;;5123518;27;46287;-76
2021/08/24 00:13:15;;;;;;;;;20.33;20.00;;;;;;;;5142333;27;45395;-75
2021/08/24 00:15:54;;;;;;;;;22.00;22.00;;;;;;;;5142526;27;45409;-76
2021/08/24 00:18:23;;;;;;;;;24.67;22.67;;;;;;;;5123943;27;46136;-76
2021/08/24 00:21:26;;;;;;;;;23.00;20.67;;;;;;;;5142131;27;45352;-76
2021/08/24 00:24:13;;;;;;;;;22.00;20.33;;;;;;;;5127440;27;45427;-75
2021/08/24 00:27:32;;;;;;;;;20.67;20.67;;;;;;;;5141752;27;45380;-76
2021/08/24 00:30:00;;;;;;;;;24.33;23.67;;;;;;;;5146805;27;45520;-76
2021/08/24 00:32:25;;;;;;;;;26.00;24.67;;;;;;;;5161826;27;47053;-76
2021/08/24 00:34:50;;;;;;;;;22.67;22.33;;;;;;;;5163497;27;45641;-76
2021/08/24 00:37:16;;;;;;;;;24.33;22.33;;;;;;;;5162218;27;45265;-76
2021/08/24 00:39:41;;;;;;;;;23.00;23.00;;;;;;;;5163441;27;45381;-76
2021/08/24 00:42:09;;;;;;;;;22.67;21.33;;;;;;;;5161940;27;47581;-76
2021/08/24 00:44:34;;;;;;;;;25.00;24.67;;;;;;;;5163095;27;45254;-77
2021/08/24 00:47:00;;;;;;;;;23.67;23.67;;;;;;;;5162585;27;45308;-76
2021/08/24 00:49:26;;;;;;;;;24.33;22.67;;;;;;;;5165376;27;46317;-76
2021/08/24 00:52:02;;;;;;;;;23.00;23.00;;;;;;;;5164589;27;46821;-76
2021/08/24 00:54:27;;;;;;;;;29.67;28.33;;;;;;;;5167261;27;45326;-76
2021/08/24 00:57:02;;;;;;;;;28.00;25.33;;;;;;;;5166686;27;45291;-77
2021/08/24 00:59:27;;;;;;;;;23.67;23.67;;;;;;;;5166492;27;45334;-76
2021/08/24 01:01:52;;;;;;;;;26.67;24.33;;;;;;;;5165123;27;46868;-76
2021/08/24 01:04:20;;;;;;;;;27.67;27.33;;;;;;;;5166065;27;45300;-76
2021/08/24 01:07:00;;;;;;;;;24.00;24.00;;;;;;;;5165075;27;45224;-77
2021/08/24 01:09:26;;;;;;;;;26.00;25.00;;;;;;;;5164880;27;45745;-76
2021/08/24 01:12:11;;;;;;;;;24.00;22.67;;;;;;;;5163741;27;45841;-76
2021/08/24 01:18:14;;;;;;;;;22.33;21.00;;;;;;;;5156218;27;45368;-75
2021/08/24 01:20:49;;;;;;;;;27.33;26.67;;;;;;;;5163585;27;45171;-76
2021/08/24 01:27:01;;;;;;;;;23.33;23.33;;;;;;;;5186940;27;45299;-76
2021/08/24 01:29:52;;;;;;;;;23.33;21.67;;;;;;;;5164851;27;45125;-76
2021/08/24 01:32:27;;;;;;;;;21.33;19.00;;;;;;;;5147278;27;45542;-76
2021/08/24 01:34:53;;;;;;;;;26.33;24.33;;;;;;;;5147552;27;46330;-76
2021/08/24 01:37:30;;;;;;;;;24.33;22.33;;;;;;;;5147284;27;45336;-76
2021/08/24 01:40:08;;;;;;;;;25.67;24.00;;;;;;;;5147709;27;45257;-76
2021/08/24 01:42:34;;;;;;;;;27.67;25.33;;;;;;;;5146132;27;45557;-77
2021/08/24 01:45:09;;;;;;;;;26.00;25.33;;;;;;;;5146323;27;47588;-77
2021/08/24 01:47:38;;;;;;;;;25.00;23.33;;;;;;;;5146003;27;45390;-76
2021/08/24 01:50:23;;;;;;;;;22.33;21.33;;;;;;;;5146577;27;45191;-76
2021/08/24 01:53:00;;;;;;;;;27.00;24.33;;;;;;;;5143147;27;45516;-76
2021/08/24 01:55:35;;;;;;;;;24.00;23.00;;;;;;;;5142258;27;46158;-76
2021/08/24 01:58:31;;;;;;;;;24.00;24.00;;;;;;;;5146191;27;45518;-76
2021/08/24 02:04:36;;;;;;;;;23.00;22.67;;;;;;;;5164636;27;45272;-76
2021/08/24 02:07:47;;;;;;;;;25.67;24.00;;;;;;;;5164093;27;45352;-77
2021/08/24 02:10:39;;;;;;;;;25.33;25.00;;;;;;;;5154721;27;45374;-76
2021/08/24 02:13:06;;;;;;;;;25.67;24.00;;;;;;;;5146548;27;45282;-77
2021/08/24 02:18:39;;;;;;;;;27.67;25.00;;;;;;;;5164485;27;45282;-76
2021/08/24 02:21:23;;;;;;;;;31.67;28.00;;;;;;;;5145773;27;45242;-77
2021/08/24 02:27:33;;;;;;;;;27.00;26.00;;;;;;;;5164469;27;45381;-76
2021/08/24 02:30:23;;;;;;;;;29.00;26.67;;;;;;;;5164038;27;45271;-77
2021/08/24 02:32:50;;;;;;;;;30.00;28.33;;;;;;;;5146052;27;45327;-75
2021/08/24 02:35:34;;;;;;;;;26.33;25.33;;;;;;;;5146530;27;45280;-76
2021/08/24 02:38:04;;;;;;;;;27.00;26.00;;;;;;;;5145809;27;45468;-76
2021/08/24 02:40:29;;;;;;;;;30.33;29.00;;;;;;;;5146141;27;45557;-76
2021/08/24 02:43:07;;;;;;;;;27.00;26.00;;;;;;;;5164760;27;45366;-76
2021/08/24 02:45:36;;;;;;;;;27.67;26.33;;;;;;;;5146656;27;45491;-76
2021/08/24 02:48:04;;;;;;;;;29.67;29.00;;;;;;;;5145806;27;45635;-76
2021/08/24 02:50:29;;;;;;;;;27.33;27.33;;;;;;;;5145438;27;45615;-77
2021/08/24 02:53:01;;;;;;;;;31.33;28.33;;;;;;;;5145306;27;45278;-77
2021/08/24 02:55:27;;;;;;;;;31.67;28.00;;;;;;;;5145149;27;45339;-77
2021/08/24 02:57:52;;;;;;;;;30.00;27.00;;;;;;;;5145089;27;45243;-76
2021/08/24 03:00:29;;;;;;;;;31.67;29.67;;;;;;;;5145036;27;46100;-77
2021/08/24 03:03:13;;;;;;;;;25.67;24.67;;;;;;;;5163974;27;45338;-77
2021/08/24 03:05:54;;;;;;;;;27.00;25.33;;;;;;;;5144959;27;45301;-76
2021/08/24 03:08:35;;;;;;;;;31.67;28.67;;;;;;;;5162781;27;45234;-77
2021/08/24 03:11:28;;;;;;;;;28.00;26.67;;;;;;;;5162498;27;45419;-76
2021/08/24 03:14:00;;;;;;;;;34.67;31.00;;;;;;;;5145013;27;45372;-76
2021/08/24 03:16:36;;;;;;;;;34.00;30.67;;;;;;;;5145225;27;45243;-77
2021/08/24 03:19:12;;;;;;;;;31.00;30.00;;;;;;;;5144871;27;45557;-76
2021/08/24 03:21:57;;;;;;;;;33.33;30.33;;;;;;;;5145740;27;46342;-76
2021/08/24 03:24:33;;;;;;;;;36.33;31.67;;;;;;;;5175659;27;45335;-77
2021/08/24 03:27:04;;;;;;;;;31.67;30.33;;;;;;;;5165992;27;45379;-77
2021/08/24 03:30:01;;;;;;;;;37.33;33.33;;;;;;;;5181285;27;46034;-76
2021/08/24 03:32:29;;;;;;;;;34.00;31.00;;;;;;;;5144826;27;46334;-76
2021/08/24 03:34:55;;;;;;;;;35.33;32.33;;;;;;;;5144472;27;45367;-77
2021/08/24 03:37:20;;;;;;;;;29.67;28.67;;;;;;;;5144512;27;45362;-77
2021/08/24 03:39:46;;;;;;;;;33.67;31.67;;;;;;;;5144200;27;45498;-77
2021/08/24 03:42:12;;;;;;;;;33.00;31.67;;;;;;;;5144190;27;46761;-76
2021/08/24 03:44:37;;;;;;;;;36.33;33.00;;;;;;;;5144367;27;45515;-76
2021/08/24 03:47:03;;;;;;;;;32.67;29.33;;;;;;;;5144423;27;45592;-76
2021/08/24 03:49:28;;;;;;;;;30.33;28.00;;;;;;;;5163016;27;45207;-77
2021/08/24 03:51:53;;;;;;;;;36.33;33.00;;;;;;;;5163110;27;46100;-76
2021/08/24 03:54:19;;;;;;;;;36.67;32.00;;;;;;;;5163091;27;45205;-77
2021/08/24 03:56:45;;;;;;;;;33.67;31.67;;;;;;;;5163459;27;45563;-76
2021/08/24 03:59:11;;;;;;;;;31.67;30.67;;;;;;;;5163484;27;45285;-76
2021/08/24 04:01:36;;;;;;;;;33.33;31.00;;;;;;;;5163199;27;45326;-76
2021/08/24 04:04:01;;;;;;;;;35.67;33.00;;;;;;;;5144776;27;45302;-77
2021/08/24 04:06:42;;;;;;;;;38.67;34.00;;;;;;;;5144380;27;45558;-76
2021/08/24 04:09:13;;;;;;;;;42.00;32.67;;;;;;;;5144946;27;45318;-75
2021/08/24 04:12:03;;;;;;;;;40.33;34.33;;;;;;;;5144459;27;46184;-76
2021/08/24 04:14:31;;;;;;;;;37.67;33.00;;;;;;;;5163388;27;45274;-76
2021/08/24 04:17:05;;;;;;;;;37.00;33.33;;;;;;;;5144633;27;45455;-76
2021/08/24 04:19:34;;;;;;;;;33.67;31.00;;;;;;;;5141248;27;45458;-76
2021/08/24 04:22:23;;;;;;;;;38.00;34.33;;;;;;;;5145260;27;45683;-77
2021/08/24 04:24:51;;;;;;;;;41.00;36.67;;;;;;;;5143862;27;45855;-77
2021/08/24 04:27:36;;;;;;;;;39.00;34.00;;;;;;;;5144009;27;45259;-76
2021/08/24 04:30:50;;;;;;;;;46.33;39.00;;;;;;;;5146517;27;46401;-76
2021/08/24 04:33:25;;;;;;;;;44.75;36.75;;;;;;;;5165890;27;46963;-76
2021/08/24 04:35:54;;;;;;;;;49.33;40.33;;;;;;;;5166434;27;45228;-76
2021/08/24 04:38:25;;;;;;;;;49.33;40.00;;;;;;;;5148765;27;45310;-77
2021/08/24 04:41:09;;;;;;;;;46.00;37.00;;;;;;;;5146900;27;45549;-77
2021/08/24 04:43:50;;;;;;;;;43.67;37.00;;;;;;;;5167283;27;46561;-76
2021/08/24 04:46:18;;;;;;;;;43.33;36.33;;;;;;;;5167165;27;45353;-76
2021/08/24 04:48:43;;;;;;;;;45.00;36.33;;;;;;;;5148592;27;45221;-76
2021/08/24 04:51:27;;;;;;;;;59.50;48.25;;;;;;;;5146813;27;45517;-76
2021/08/24 04:54:17;;;;;;;;;50.25;42.25;;;;;;;;5166871;27;46404;-76
2021/08/24 04:57:23;;;;;;;;;57.25;46.00;;;;;;;;5166549;27;45225;-76
2021/08/24 05:00:23;;;;;;;;;68.50;52.00;;;;;;;;5128178;27;45499;-77
2021/08/24 05:03:08;;;;;;;;;78.00;70.50;;;;;;;;5163575;27;45274;-77
2021/08/24 05:05:52;;;;;;;;;70.50;58.50;;;;;;;;5146991;27;45437;-77
2021/08/24 05:08:17;;;;;;;;;69.50;58.50;;;;;;;;5165968;27;45275;-76
2021/08/24 05:14:08;;;;;;;;;41.33;34.67;;;;;;;;5083030;27;45281;-77
2021/08/24 05:16:54;;;;;;;;;53.25;43.75;;;;;;;;5162019;27;45547;-76
2021/08/24 05:19:36;;;;;;;;;45.33;38.00;;;;;;;;5147161;27;45242;-76
2021/08/24 05:22:04;;;;;;;;;58.50;47.75;;;;;;;;5165723;27;45300;-76
2021/08/24 05:24:30;;;;;;;;;50.67;41.00;;;;;;;;5154844;27;45382;-77
2021/08/24 05:27:18;;;;;;;;;48.33;39.00;;;;;;;;5153061;27;45571;-76
2021/08/24 05:30:37;;;;;;;;;53.50;44.50;;;;;;;;5155652;27;45385;-78
2021/08/24 05:33:22;;;;;;;;;62.50;50.25;;;;;;;;5133510;27;45498;-76
2021/08/24 05:35:47;;;;;;;;;54.00;44.00;;;;;;;;5144133;27;45352;-76
2021/08/24 05:38:13;;;;;;;;;63.25;49.75;;;;;;;;5142502;27;45396;-76
2021/08/24 05:40:38;;;;;;;;;44.33;37.67;;;;;;;;5142846;27;45381;-79
2021/08/24 05:43:04;;;;;;;;;46.00;39.00;;;;;;;;5143300;27;45333;-79
2021/08/24 05:45:33;;;;;;;;;54.00;44.00;;;;;;;;5140919;27;46962;-80
2021/08/24 05:47:58;;;;;;;;;53.00;44.00;;;;;;;;5141552;27;45892;-78
2021/08/24 05:50:27;;;;;;;;;72.50;62.25;;;;;;;;5141827;27;45323;-79
2021/08/24 05:52:56;;;;;;;;;53.75;42.50;;;;;;;;5142682;27;45454;-78
2021/08/24 05:55:21;;;;;;;;;52.25;44.00;;;;;;;;5142780;27;45482;-78
2021/08/24 05:57:46;;;;;;;;;59.00;48.00;;;;;;;;5141860;27;46780;-77
2021/08/24 06:00:12;;;;;;;;;69.75;56.25;;;;;;;;5140896;27;45396;-79
2021/08/24 06:02:38;;;;;;;;;64.00;51.25;;;;;;;;5141034;27;45169;-81
2021/08/24 06:05:04;;;;;;;;;58.25;45.25;;;;;;;;5140670;27;45554;-80
2021/08/24 06:07:30;;;;;;;;;59.75;48.50;;;;;;;;5140454;27;46844;-80
2021/08/24 06:09:55;;;;;;;;;53.00;41.00;;;;;;;;5140425;27;45453;-80
2021/08/24 06:12:20;;;;;;;;;81.00;72.25;;;;;;;;5140752;27;45321;-80
2021/08/24 06:14:46;;;;;;;;;105.00;94.75;;;;;;;;5140495;27;45852;-78
2021/08/24 06:17:11;;;;;;;;;71.00;60.25;;;;;;;;5140567;27;45384;-77
2021/08/24 06:19:42;;;;;;;;;61.50;50.25;;;;;;;;5141511;27;45772;-78
2021/08/24 06:22:07;;;;;;;;;73.25;61.75;;;;;;;;5140554;27;45441;-80
2021/08/24 06:24:34;;;;;;;;;64.00;51.00;;;;;;;;5141477;27;46027;-78
2021/08/24 06:27:00;;;;;;;;;51.25;42.00;;;;;;;;5145873;27;46834;-78
2021/08/24 06:29:31;;;;;;;;;59.50;47.50;;;;;;;;5140638;27;45350;-79
2021/08/24 06:31:59;;;;;;;;;69.00;52.25;;;;;;;;5115230;27;45486;-80
2021/08/24 06:34:30;;;;;;;;;71.25;61.25;;;;;;;;5114603;27;45333;-80
2021/08/24 06:36:56;;;;;;;;;115.50;103.75;;;;;;;;5104581;27;45420;-79
2021/08/24 06:39:21;;;;;;;;;82.00;77.25;;;;;;;;5109406;27;45308;-79
2021/08/24 06:41:46;;;;;;;;;95.00;86.25;;;;;;;;5125608;27;45268;-76
2021/08/24 06:44:12;;;;;;;;;47.75;38.75;;;;;;;;5122813;27;45247;-79
2021/08/24 06:46:38;;;;;;;;;84.75;75.00;;;;;;;;5103608;27;46601;-78
2021/08/24 06:49:04;;;;;;;;;70.75;60.75;;;;;;;;5123260;27;45964;-79
2021/08/24 06:51:32;;;;;;;;;69.75;56.50;;;;;;;;5105158;27;45341;-79
2021/08/24 06:53:58;;;;;;;;;96.75;88.00;;;;;;;;5108083;27;45378;-79
2021/08/24 06:56:23;;;;;;;;;76.75;64.25;;;;;;;;5109339;27;45446;-79
2021/08/24 06:58:49;;;;;;;;;56.50;45.00;;;;;;;;5141207;27;45280;-79
2021/08/24 07:01:15;;;;;;;;;84.25;75.00;;;;;;;;5123823;27;45381;-79
2021/08/24 07:03:41;;;;;;;;;50.25;40.75;;;;;;;;5112441;27;45460;-79
2021/08/24 07:06:06;;;;;;;;;42.00;36.00;;;;;;;;5101746;27;47295;-77
2021/08/24 07:08:31;;;;;;;;;43.00;37.00;;;;;;;;5131004;27;45340;-77
2021/08/24 07:10:56;;;;;;;;;61.75;49.25;;;;;;;;5142358;27;45282;-78
2021/08/24 07:13:22;;;;;;;;;72.50;58.50;;;;;;;;5139876;27;45483;-77
2021/08/24 07:15:47;;;;;;;;;43.50;36.75;;;;;;;;5141132;27;46017;-78
2021/08/24 07:18:13;;;;;;;;;117.25;101.75;;;;;;;;5142019;27;45215;-77
2021/08/24 07:20:38;;;;;;;;;74.00;62.25;;;;;;;;5142591;27;45236;-78
2021/08/24 07:23:04;;;;;;;;;54.25;44.75;;;;;;;;5142225;27;45461;-77
2021/08/24 07:25:39;;;;;;;;;58.00;46.25;;;;;;;;5161486;27;45331;-78
2021/08/24 07:28:09;;;;;;;;;48.33;40.00;;;;;;;;5162953;27;45371;-78
2021/08/24 07:30:35;;;;;;;;;55.50;44.00;;;;;;;;5162287;27;45432;-78
2021/08/24 07:33:01;;;;;;;;;97.75;89.25;;;;;;;;5143210;27;46785;-78
2021/08/24 07:35:26;;;;;;;;;65.75;51.25;;;;;;;;5162623;27;45362;-76
2021/08/24 07:37:52;;;;;;;;;69.25;57.50;;;;;;;;5146823;27;45277;-78
2021/08/24 07:40:17;;;;;;;;;78.25;68.50;;;;;;;;5148226;27;45331;-77
2021/08/24 07:42:44;;;;;;;;;76.00;63.75;;;;;;;;5164293;27;45583;-77
2021/08/24 07:45:10;;;;;;;;;113.25;102.00;;;;;;;;5163369;27;45383;-76
2021/08/24 07:47:35;;;;;;;;;107.00;94.25;;;;;;;;5147608;27;45290;-77
2021/08/24 07:50:00;;;;;;;;;84.25;72.75;;;;;;;;5144974;27;45307;-76
2021/08/24 07:52:26;;;;;;;;;65.75;51.50;;;;;;;;5162755;27;45473;-76
2021/08/24 07:54:51;;;;;;;;;68.75;56.25;;;;;;;;5161580;27;45330;-76
2021/08/24 07:57:16;;;;;;;;;91.25;82.25;;;;;;;;5161446;27;45320;-78
2021/08/24 07:59:42;;;;;;;;;34.67;31.00;;;;;;;;5160346;27;45296;-77
2021/08/24 08:02:12;;;;;;;;;62.25;49.00;;;;;;;;5143489;27;45555;-76
2021/08/24 08:04:37;;;;;;;;;45.33;38.00;;;;;;;;5164096;27;46884;-76
2021/08/24 08:07:03;;;;;;;;;48.50;39.75;;;;;;;;5163877;27;45294;-77
2021/08/24 08:09:28;;;;;;;;;35.67;32.67;;;;;;;;5165609;27;45356;-76
2021/08/24 08:11:54;;;;;;;;;35.00;31.00;;;;;;;;5166787;27;45347;-75
2021/08/24 08:14:19;;;;;;;;;74.50;62.00;;;;;;;;5145154;27;46612;-78
2021/08/24 08:16:45;;;;;;;;;75.75;66.50;;;;;;;;5164233;27;45306;-77
2021/08/24 08:19:11;;;;;;;;;29.33;28.33;;;;;;;;5163567;27;45375;-78
2021/08/24 08:21:37;;;;;;;;;26.33;24.67;;;;;;;;5161586;27;45471;-78
2021/08/24 08:24:04;;;;;;;;;25.00;25.00;;;;;;;;5143811;27;46926;-78
2021/08/24 08:26:31;;;;;;;;;57.50;45.75;;;;;;;;5163228;27;45273;-81
2021/08/24 08:28:57;;;;;;;;;53.00;42.00;;;;;;;;5144324;27;45270;-79
2021/08/24 08:31:23;;;;;;;;;62.25;49.50;;;;;;;;5143086;27;46792;-76
2021/08/24 08:33:49;;;;;;;;;46.67;38.00;;;;;;;;5162080;27;45381;-77
2021/08/24 08:36:14;;;;;;;;;25.33;24.33;;;;;;;;5162902;27;45346;-77
2021/08/24 08:38:39;;;;;;;;;40.00;35.00;;;;;;;;5165066;27;45356;-79
2021/08/24 08:41:07;;;;;;;;;20.33;20.00;;;;;;;;5147895;27;45595;-79
2021/08/24 08:43:55;;;;;;;;;41.67;33.67;;;;;;;;5164343;27;45434;-76
2021/08/24 08:46:20;;;;;;;;;31.33;27.67;;;;;;;;5165848;27;45281;-76
2021/08/24 08:48:51;;;;;;;;;35.67;31.00;;;;;;;;5162530;27;45274;-76
2021/08/24 08:51:34;;;;;;;;;31.67;28.67;;;;;;;;5158618;27;45806;-77
2021/08/24 08:54:18;;;;;;;;;46.67;39.33;;;;;;;;5130753;27;46932;-77
2021/08/24 08:56:59;;;;;;;;;46.33;38.67;;;;;;;;5121960;27;45381;-77
2021/08/24 08:59:27;;;;;;;;;44.67;37.00;;;;;;;;5146576;27;45225;-77
2021/08/24 09:01:58;;;;;;;;;46.33;39.33;;;;;;;;5142948;27;45443;-77
2021/08/24 09:04:23;;;;;;;;;44.00;37.00;;;;;;;;5161642;27;45350;-76
2021/08/24 09:06:53;;;;;;;;;22.00;18.67;;;;;;;;5138541;27;45247;-76
2021/08/24 09:09:19;;;;;;;;;21.33;21.00;;;;;;;;5163626;27;45511;-76
2021/08/24 09:11:46;;;;;;;;;14.67;14.67;;;;;;;;5165524;27;45290;-76
2021/08/24 09:14:18;;;;;;;;;19.00;18.33;;;;;;;;5165360;27;46064;-76
2021/08/24 09:16:55;;;;;;;;;22.33;18.67;;;;;;;;5165346;27;45301;-76
2021/08/24 09:19:22;;;;;;;;;15.00;14.67;;;;;;;;5163751;27;45334;-75
2021/08/24 09:21:48;;;;;;;;;28.33;27.67;;;;;;;;5165174;27;45493;-77
2021/08/24 09:24:21;;;;;;;;;60.50;45.25;;;;;;;;5164626;27;45388;-75
2021/08/24 09:26:59;;;;;;;;;60.50;47.50;;;;;;;;5164214;27;45251;-77
2021/08/24 09:29:26;;;;;;;;;52.67;42.00;;;;;;;;5164393;27;45288;-76
2021/08/24 09:31:52;;;;;;;;;64.25;51.25;;;;;;;;5165040;27;45616;-78
2021/08/24 09:34:21;;;;;;;;;12.67;12.67;;;;;;;;5165060;27;45301;-77
2021/08/24 09:36:47;;;;;;;;;67.00;52.00;;;;;;;;5145901;27;45797;-78
2021/08/24 09:39:12;;;;;;;;;14.67;14.67;;;;;;;;5146062;27;45434;-78
2021/08/24 09:41:39;;;;;;;;;11.33;11.33;;;;;;;;5164897;27;45263;-76
2021/08/24 09:44:39;;;;;;;;;41.00;33.33;;;;;;;;5145668;27;47848;-74
2021/08/24 09:47:14;;;;;;;;;59.25;47.75;;;;;;;;5059357;28;45331;-74
2021/08/24 09:49:41;;;;;;;;;34.00;30.33;;;;;;;;5147337;27;45347;-74
2021/08/24 09:52:12;;;;;;;;;19.67;16.33;;;;;;;;5164424;27;45378;-75
2021/08/24 09:54:50;;;;;;;;;14.33;14.33;;;;;;;;5145284;27;46829;-75
2021/08/24 09:57:37;;;;;;;;;17.67;17.67;;;;;;;;5164193;27;45311;-76
2021/08/24 10:00:08;;;;;;;;;20.33;17.33;;;;;;;;5144585;27;45324;-76
2021/08/24 10:02:38;;;;;;;;;17.33;17.33;;;;;;;;5149319;27;46120;-76
2021/08/24 10:05:04;;;;;;;;;24.67;23.67;;;;;;;;5162318;27;45319;-74
2021/08/24 10:07:35;;;;;;;;;16.00;12.00;;;;;;;;5163788;27;45239;-78
2021/08/24 10:10:01;;;;;;;;;29.67;28.33;;;;;;;;5164571;27;45367;-74
2021/08/24 10:12:28;;;;;;;;;23.50;21.50;;;;;;;;5164461;27;45518;-74
2021/08/24 10:14:54;;;;;;;;;9.33;9.00;;;;;;;;5164511;27;45372;-75
2021/08/24 10:17:36;;;;;;;;;38.33;32.33;;;;;;;;5164447;27;45169;-75
2021/08/24 10:20:30;;;;;;;;;32.00;26.67;;;;;;;;5164451;27;45320;-75
2021/08/24 10:22:55;;;;;;;;;10.00;9.00;;;;;;;;5160448;27;45651;-74
2021/08/24 10:25:23;;;;;;;;;7.33;7.33;;;;;;;;5163175;27;45941;-75
2021/08/24 10:28:05;;;;;;;;;16.00;14.00;;;;;;;;5164330;27;45546;-74
2021/08/24 10:30:42;;;;;;;;;18.00;15.00;;;;;;;;5145189;27;45345;-74
2021/08/24 10:33:14;;;;;;;;;8.67;8.67;;;;;;;;5145156;27;47025;-75
2021/08/24 10:35:42;;;;;;;;;8.67;8.67;;;;;;;;5163374;27;45521;-76
2021/08/24 10:38:15;;;;;;;;;33.00;29.33;;;;;;;;5164068;27;45511;-77
2021/08/24 10:40:46;;;;;;;;;7.00;7.00;;;;;;;;5144903;27;45339;-76
2021/08/24 10:43:13;;;;;;;;;71.00;58.50;;;;;;;;5144803;27;45506;-77
2021/08/24 10:45:40;;;;;;;;;54.00;43.67;;;;;;;;5144729;27;46407;-76
2021/08/24 10:48:10;;;;;;;;;20.33;19.00;;;;;;;;5144873;27;45339;-76
2021/08/24 10:50:47;;;;;;;;;8.00;6.67;;;;;;;;5164048;27;45326;-77
2021/08/24 10:53:21;;;;;;;;;51.00;41.00;;;;;;;;5160711;27;45356;-75
2021/08/24 10:55:49;;;;;;;;;19.33;17.00;;;;;;;;5139713;27;45637;-76
2021/08/24 10:58:15;;;;;;;;;41.67;34.33;;;;;;;;5159338;27;45397;-75
2021/08/24 11:00:53;;;;;;;;;54.67;43.67;;;;;;;;5144272;27;45322;-76
2021/08/24 11:03:37;;;;;;;;;10.33;8.33;;;;;;;;5162488;27;45279;-77
2021/08/24 11:06:21;;;;;;;;;15.00;15.00;;;;;;;;5143473;27;47573;-77
2021/08/24 11:09:00;;;;;;;;;30.67;28.67;;;;;;;;5142054;27;45429;-76
2021/08/24 11:11:29;;;;;;;;;61.50;48.50;;;;;;;;5152663;27;45711;-78
2021/08/24 11:14:13;;;;;;;;;66.75;53.25;;;;;;;;5142457;27;45501;-78
2021/08/24 11:16:52;;;;;;;;;34.67;30.00;;;;;;;;5143675;27;47181;-77
2021/08/24 11:19:21;;;;;;;;;18.33;17.67;;;;;;;;5144418;27;45803;-77
2021/08/24 11:21:52;;;;;;;;;14.00;12.67;;;;;;;;5144141;27;45328;-78
2021/08/24 11:24:24;;;;;;;;;8.00;7.33;;;;;;;;5143783;27;45765;-76
2021/08/24 11:26:58;;;;;;;;;8.67;8.67;;;;;;;;5144058;27;45740;-78
2021/08/24 11:29:23;;;;;;;;;23.33;23.33;;;;;;;;5141766;27;45395;-78
2021/08/24 11:32:01;;;;;;;;;7.00;5.67;;;;;;;;5143046;27;45886;-77
2021/08/24 11:34:29;;;;;;;;;33.33;30.00;;;;;;;;5141833;27;47072;-77
2021/08/24 11:36:59;;;;;;;;;37.33;31.00;;;;;;;;5142747;27;45693;-77
2021/08/24 11:39:33;;;;;;;;;24.00;23.00;;;;;;;;5162025;27;45503;-77
2021/08/24 11:42:02;;;;;;;;;15.00;14.67;;;;;;;;5143291;27;45406;-78
2021/08/24 11:44:41;;;;;;;;;58.75;46.25;;;;;;;;5142738;27;46623;-79
2021/08/24 11:47:12;;;;;;;;;53.67;43.33;;;;;;;;5140871;27;47000;-77
2021/08/24 11:49:43;;;;;;;;;7.33;7.33;;;;;;;;5161295;27;45621;-77
2021/08/24 11:52:27;;;;;;;;;14.33;14.33;;;;;;;;5142022;27;45432;-77
2021/08/24 11:54:59;;;;;;;;;23.33;21.67;;;;;;;;5158967;27;45196;-77
2021/08/24 11:57:33;;;;;;;;;26.00;25.00;;;;;;;;5161889;27;46129;-77
2021/08/24 11:59:59;;;;;;;;;4.00;4.00;;;;;;;;5158869;27;45236;-77
2021/08/24 12:02:26;;;;;;;;;8.33;8.00;;;;;;;;5142156;27;45454;-79
2021/08/24 12:04:52;;;;;;;;;6.00;4.00;;;;;;;;5160764;27;45412;-78
2021/08/24 12:07:33;;;;;;;;;5.33;5.33;;;;;;;;5160174;27;47499;-77
2021/08/24 12:10:00;;;;;;;;;20.33;20.33;;;;;;;;5159989;27;45448;-78
2021/08/24 12:12:25;;;;;;;;;4.00;4.00;;;;;;;;5161800;27;45601;-78
2021/08/24 12:14:55;;;;;;;;;22.67;17.67;;;;;;;;5161758;27;45384;-78
2021/08/24 12:17:24;;;;;;;;;37.67;33.33;;;;;;;;5161452;27;45985;-78
2021/08/24 12:20:09;;;;;;;;;38.33;32.67;;;;;;;;5161487;27;45159;-77
2021/08/24 12:22:40;;;;;;;;;30.33;28.67;;;;;;;;5162233;27;45216;-77
2021/08/24 12:25:06;;;;;;;;;9.33;8.33;;;;;;;;5161761;27;45246;-77
2021/08/24 12:27:31;;;;;;;;;44.33;34.00;;;;;;;;5142401;27;46933;-76
2021/08/24 12:30:12;;;;;;;;;14.00;14.00;;;;;;;;5142995;27;45395;-77
2021/08/24 12:32:37;;;;;;;;;37.33;29.33;;;;;;;;5142997;27;45350;-76
2021/08/24 12:35:02;;;;;;;;;35.00;30.33;;;;;;;;5162387;27;45207;-76
2021/08/24 12:37:30;;;;;;;;;64.25;51.75;;;;;;;;5161538;27;45346;-77
2021/08/24 12:39:56;;;;;;;;;51.33;40.00;;;;;;;;5160919;27;45320;-77
2021/08/24 12:42:21;;;;;;;;;9.00;8.67;;;;;;;;5161947;27;45483;-78
2021/08/24 12:44:49;;;;;;;;;33.67;28.67;;;;;;;;5163085;27;45430;-77
2021/08/24 12:47:30;;;;;;;;;26.67;24.00;;;;;;;;5152024;27;47038;-78
2021/08/24 12:50:16;;;;;;;;;32.00;28.33;;;;;;;;5125757;27;45365;-78
2021/08/24 12:52:42;;;;;;;;;10.00;8.33;;;;;;;;5111187;27;45589;-79
2021/08/24 12:55:08;;;;;;;;;4.33;4.33;;;;;;;;5155328;27;45333;-78
2021/08/24 12:57:36;;;;;;;;;6.00;6.00;;;;;;;;5165783;27;45347;-77
2021/08/24 13:00:18;;;;;;;;;26.67;24.67;;;;;;;;5146723;27;45532;-78
2021/08/24 13:02:51;;;;;;;;;2.33;2.33;;;;;;;;5146247;27;45405;-80
2021/08/24 13:05:16;;;;;;;;;20.67;20.67;;;;;;;;5165403;27;45408;-77
2021/08/24 13:07:44;;;;;;;;;16.33;13.67;;;;;;;;5164312;27;46101;-78
2021/08/24 13:10:32;;;;;;;;;3.00;3.00;;;;;;;;5163022;27;45749;-78
2021/08/24 13:12:58;;;;;;;;;2.00;2.00;;;;;;;;5147087;27;45362;-78
2021/08/24 13:15:30;;;;;;;;;1.00;1.00;;;;;;;;5167126;27;45528;-78
2021/08/24 13:17:55;;;;;;;;;3.00;3.00;;;;;;;;5166283;27;45287;-76
2021/08/24 13:20:30;;;;;;;;;3.00;3.00;;;;;;;;5165495;27;45349;-77
2021/08/24 13:23:02;;;;;;;;;6.00;5.33;;;;;;;;5144753;27;45295;-78
2021/08/24 13:25:30;;;;;;;;;13.00;12.00;;;;;;;;5148159;27;45310;-78
2021/08/24 13:28:02;;;;;;;;;16.67;14.67;;;;;;;;5126929;27;45425;-79
2021/08/24 13:30:29;;;;;;;;;8.00;8.00;;;;;;;;5143114;27;45496;-77
2021/08/24 13:32:59;;;;;;;;;21.67;20.67;;;;;;;;5125208;27;45334;-77
2021/08/24 13:35:48;;;;;;;;;5.00;5.00;;;;;;;;5122876;27;45418;-78
2021/08/24 13:38:33;;;;;;;;;23.00;21.33;;;;;;;;5118613;27;45585;-78
2021/08/24 13:41:05;;;;;;;;;2.00;2.00;;;;;;;;5137498;27;45259;-80
2021/08/24 13:43:30;;;;;;;;;21.33;20.33;;;;;;;;5122674;27;45451;-80
2021/08/24 13:45:57;;;;;;;;;39.00;32.67;;;;;;;;5121715;27;45554;-79
2021/08/24 13:48:27;;;;;;;;;8.33;8.00;;;;;;;;5103896;27;47275;-80
2021/08/24 13:51:01;;;;;;;;;13.00;13.00;;;;;;;;5122957;27;45211;-79
2021/08/24 13:53:32;;;;;;;;;30.00;27.67;;;;;;;;5123950;27;45247;-79
2021/08/24 13:55:59;;;;;;;;;40.67;33.33;;;;;;;;5124154;27;45442;-79
2021/08/24 13:58:29;;;;;;;;;5.33;5.33;;;;;;;;5143902;27;46295;-78
2021/08/24 14:01:03;;;;;;;;;32.33;30.33;;;;;;;;5143790;27;45435;-77
2021/08/24 14:03:29;;;;;;;;;5.00;5.00;;;;;;;;5144468;27;45447;-80
2021/08/24 14:05:58;;;;;;;;;4.67;4.67;;;;;;;;5143790;27;45376;-78
2021/08/24 14:08:25;;;;;;;;;7.67;6.67;;;;;;;;5143364;27;45269;-79
2021/08/24 14:10:53;;;;;;;;;5.00;4.00;;;;;;;;5142900;27;45624;-78
2021/08/24 14:13:19;;;;;;;;;3.67;3.67;;;;;;;;5143223;27;45140;-78
2021/08/24 14:15:47;;;;;;;;;8.00;7.33;;;;;;;;5143122;27;45424;-79
2021/08/24 14:18:22;;;;;;;;;15.00;13.00;;;;;;;;5122941;27;45387;-79
2021/08/24 14:20:54;;;;;;;;;5.67;5.00;;;;;;;;5143876;27;45346;-80
2021/08/24 14:23:19;;;;;;;;;13.33;12.67;;;;;;;;5144881;27;45423;-78
2021/08/24 14:25:46;;;;;;;;;37.00;32.67;;;;;;;;5160474;27;45475;-78
2021/08/24 14:28:31;;;;;;;;;44.67;38.33;;;;;;;;5164003;27;46105;-78
2021/08/24 14:30:57;;;;;;;;;34.67;29.33;;;;;;;;5163450;27;45304;-78
2021/08/24 14:33:42;;;;;;;;;49.00;38.00;;;;;;;;5164303;27;45466;-78
2021/08/24 14:36:17;;;;;;;;;35.00;29.00;;;;;;;;5164258;27;45463;-77
2021/08/24 14:38:49;;;;;;;;;27.00;27.00;;;;;;;;5144899;27;47805;-78
2021/08/24 14:41:14;;;;;;;;;24.33;22.00;;;;;;;;5164001;27;45435;-79
2021/08/24 14:43:40;;;;;;;;;30.00;28.00;;;;;;;;5164029;27;45289;-77
2021/08/24 14:46:07;;;;;;;;;41.00;35.67;;;;;;;;5144894;27;46322;-77
2021/08/24 14:48:32;;;;;;;;;25.67;23.67;;;;;;;;5163356;27;46210;-78
2021/08/24 14:50:58;;;;;;;;;36.67;31.00;;;;;;;;5164100;27;45441;-77
2021/08/24 14:53:28;;;;;;;;;26.00;24.00;;;;;;;;5164158;27;45245;-77
2021/08/24 14:56:05;;;;;;;;;6.00;6.00;;;;;;;;5163586;27;45284;-78
2021/08/24 14:58:31;;;;;;;;;25.67;24.33;;;;;;;;5163598;27;46131;-78
2021/08/24 15:01:08;;;;;;;;;32.67;28.67;;;;;;;;5161406;27;45255;-78
2021/08/24 15:03:45;;;;;;;;;5.33;3.00;;;;;;;;5143680;27;45340;-80
2021/08/24 15:06:13;;;;;;;;;8.00;7.67;;;;;;;;5122159;27;47278;-78